Terminal Aerodrome Forecast
Issued by NWS Jacksonville, FL

Home | Current Version | Previous Version | Text Only | Print | Product List | Glossary On
Versions: 1 2 3 4 5 6 7 8 9 10 11 12 13 14 15 16 17 18 19 20 21 22 23 24 25 26 27 28 29 30 31 32
316
FTUS42 KJAX 240632 AAB
TAFGNV
TAF AMD
KGNV 240632Z 2407/2506 25008KT P6SM SCT020 BKN250
      TEMPO 2408/2411 3SM BR BKN010
     FM241400 24012KT P6SM SCT040=

USA.gov is the U.S. government's official web portal to all federal, state and local government web resources and services.